Time;durP1;ratioP1;P1;durP2;ratioP2;P2;SDS_P1;SDS_P2;PMS_P1;PMS_P2;Temp;Humidity;BMP_temperature;BMP_pressure;BME280_temperature;BME280_humidity;BME280_pressure;Samples;Min_cycle;Max_cycle;Signal;HPM_P1;HPM_P2
2023/04/12 00:02:05;;;;;;;11.37;7.97;;;10.40;96.90;;;10.33;60.22;94086.78;5076066;28;20465;-65
2023/04/12 00:04:33;;;;;;;14.00;7.87;;;10.30;96.90;;;10.32;60.49;94079.88;5075643;28;20869;-64
2023/04/12 00:07:01;;;;;;;13.27;9.33;;;10.30;97.00;;;10.32;60.47;94079.88;5068623;28;20514;-58
2023/04/12 00:09:29;;;;;;;9.17;7.60;;;10.30;97.10;;;10.32;60.41;94079.88;5076234;28;20454;-65
2023/04/12 00:11:57;;;;;;;10.13;8.67;;;10.30;97.10;;;10.30;60.62;94074.78;5076755;28;20565;-57
2023/04/12 00:14:26;;;;;;;10.50;8.53;;;10.30;97.30;;;10.31;60.41;94067.72;5077026;28;20463;-57
2023/04/12 00:16:53;;;;;;;14.40;9.33;;;10.30;97.10;;;10.31;60.48;94068.53;5077655;28;20457;-64
2023/04/12 00:19:21;;;;;;;10.60;8.27;;;10.30;97.10;;;10.30;60.50;94072.16;5077851;28;20453;-57
2023/04/12 00:21:48;;;;;;;10.77;8.23;;;10.30;97.30;;;10.31;60.58;94065.91;5076213;28;20902;-65
2023/04/12 00:24:15;;;;;;;8.37;7.57;;;10.30;97.20;;;10.32;60.79;94064.13;5076279;28;20486;-58
2023/04/12 00:26:43;;;;;;;10.00;8.37;;;10.30;97.30;;;10.31;60.76;94062.44;5076944;28;20530;-57
2023/04/12 00:29:10;;;;;;;10.33;7.97;;;10.30;97.30;;;10.31;60.77;94055.38;5076950;28;20463;-59
2023/04/12 00:31:39;;;;;;;11.80;8.70;;;10.30;97.30;;;10.31;60.56;94060.63;5075681;28;20484;-57
2023/04/12 00:34:06;;;;;;;12.50;8.20;;;10.30;97.30;;;10.31;60.42;94058.00;5075988;28;20447;-64
2023/04/12 00:36:34;;;;;;;13.70;8.70;;;10.30;97.30;;;10.30;60.85;94047.66;5071586;28;20444;-64
2023/04/12 00:39:01;;;;;;;12.83;9.50;;;10.30;97.30;;;10.30;60.71;94050.28;5073277;28;20451;-64
2023/04/12 00:41:28;;;;;;;11.30;8.87;;;10.30;97.30;;;10.30;60.80;94058.16;5075041;28;20442;-55
2023/04/12 00:43:56;;;;;;;12.33;8.63;;;10.30;97.40;;;10.30;60.47;94066.06;5077179;28;20476;-64
2023/04/12 00:46:23;;;;;;;19.63;9.57;;;10.30;97.30;;;10.30;60.73;94059.00;5074775;28;20573;-56
2023/04/12 00:48:52;;;;;;;11.13;9.20;;;10.30;97.30;;;10.31;60.74;94058.00;5077169;28;20498;-56
2023/04/12 00:51:21;;;;;;;16.00;9.80;;;10.30;97.30;;;10.30;60.96;94053.75;5077010;28;20458;-57
2023/04/12 00:53:48;;;;;;;14.90;10.17;;;10.30;97.60;;;10.31;60.95;94054.56;5077422;28;20866;-64
2023/04/12 00:56:16;;;;;;;13.63;8.77;;;10.30;97.30;;;10.29;60.89;94053.91;5073859;28;20577;-64
2023/04/12 00:58:43;;;;;;;12.77;9.50;;;10.30;97.40;;;10.30;60.95;94051.13;5080942;28;20961;-63
2023/04/12 01:01:11;;;;;;;14.07;9.80;;;10.30;97.60;;;10.27;60.79;94046.19;5081587;28;20950;-58
2023/04/12 01:03:41;;;;;;;11.07;9.10;;;10.30;97.40;;;10.26;60.67;94047.16;5080775;28;20478;-56
2023/04/12 01:06:14;;;;;;;11.53;9.17;;;10.30;97.30;;;10.25;60.82;94053.38;5080253;28;20539;-64
2023/04/12 01:08:52;;;;;;;13.87;10.80;;;10.30;97.30;;;10.22;60.97;94049.28;5078191;28;20469;-63
2023/04/12 01:11:26;;;;;;;16.03;10.70;;;10.20;97.50;;;10.23;60.99;94055.34;5074047;28;20881;-56
2023/04/12 01:13:58;;;;;;;12.10;9.60;;;10.20;97.60;;;10.22;61.12;94053.69;5077718;28;20548;-64
2023/04/12 01:16:28;;;;;;;18.10;10.57;;;10.20;97.80;;;10.20;61.01;94050.41;5079789;28;20528;-66
2023/04/12 01:18:59;;;;;;;12.97;9.10;;;10.20;97.80;;;10.18;61.40;94050.56;5077727;28;21018;-56
2023/04/12 01:21:35;;;;;;;21.70;10.70;;;10.20;97.90;;;10.17;61.01;94048.91;5078889;28;20941;-64
2023/04/12 01:24:20;;;;;;;14.20;9.10;;;10.20;97.80;;;10.15;61.25;94044.81;5078421;28;20442;-58
2023/04/12 01:26:48;;;;;;;12.20;9.83;;;10.20;97.80;;;10.13;61.25;94046.75;5079236;28;20478;-64
2023/04/12 01:29:19;;;;;;;13.33;10.27;;;10.10;97.80;;;10.11;61.46;94044.28;5080090;28;20460;-56
2023/04/12 01:31:52;;;;;;;15.17;10.33;;;10.10;98.00;;;10.08;61.56;94041.97;5078504;28;20442;-64
2023/04/12 01:34:19;;;;;;;11.57;9.70;;;10.10;98.20;;;10.08;61.58;94046.41;5079420;28;20977;-64
2023/04/12 01:36:48;;;;;;;15.60;10.30;;;10.10;98.10;;;10.06;61.52;94043.94;5073876;28;20525;-65
2023/04/12 01:39:15;;;;;;;11.90;9.40;;;10.10;98.00;;;10.06;61.45;94054.47;5077443;28;20461;-64
2023/04/12 01:41:44;;;;;;;11.90;9.50;;;10.10;98.30;;;10.07;61.50;94050.03;5076888;28;20442;-64
2023/04/12 01:44:14;;;;;;;14.37;9.80;;;10.10;98.40;;;10.08;61.48;94051.69;5080544;28;20449;-64
2023/04/12 01:46:43;;;;;;;15.07;10.10;;;10.10;98.30;;;10.08;61.60;94051.69;5079287;28;20520;-62
2023/04/12 01:49:11;;;;;;;13.53;10.40;;;10.10;98.40;;;10.08;61.76;94046.41;5080550;28;20454;-57
2023/04/12 01:51:45;;;;;;;13.73;10.13;;;10.00;98.40;;;10.08;61.75;94044.59;5080210;28;20770;-58
2023/04/12 01:54:17;;;;;;;14.90;10.30;;;10.10;98.50;;;10.05;61.85;94037.88;5078429;28;21006;-65
2023/04/12 01:56:47;;;;;;;13.33;9.77;;;10.10;98.40;;;10.05;61.83;94032.63;5072116;28;20516;-64
2023/04/12 01:59:15;;;;;;;13.87;9.87;;;10.00;98.40;;;10.04;61.76;94036.22;5078796;28;20461;-57
2023/04/12 02:01:44;;;;;;;16.40;10.77;;;10.00;98.40;;;10.02;61.63;94043.44;5078340;28;20529;-65
2023/04/12 02:04:11;;;;;;;14.23;10.03;;;10.00;98.40;;;10.00;61.89;94032.25;5073001;28;20842;-64
2023/04/12 02:06:38;;;;;;;15.20;10.90;;;10.00;98.60;;;9.97;61.94;94035.19;5080326;28;21167;-57
2023/04/12 02:09:06;;;;;;;15.33;11.33;;;10.00;98.60;;;9.96;62.50;94028.31;5079577;28;20465;-64
2023/04/12 02:11:34;;;;;;;16.13;10.30;;;10.00;98.70;;;9.95;62.04;94031.91;5079073;28;20540;-64
2023/04/12 02:14:01;;;;;;;16.37;11.13;;;10.00;98.70;;;9.93;62.17;94033.88;5077212;28;20512;-63
2023/04/12 02:16:31;;;;;;;21.90;13.30;;;10.00;98.70;;;9.93;62.22;94030.41;5080164;28;20532;-57
2023/04/12 02:19:00;;;;;;;15.63;11.07;;;9.90;99.50;;;9.91;62.00;94027.94;5080153;28;20461;-65
2023/04/12 02:21:27;;;;;;;16.17;10.23;;;9.90;99.50;;;9.91;62.55;94033.19;5079706;28;20442;-57
2023/04/12 02:23:55;;;;;;;15.67;11.17;;;9.90;99.50;;;9.91;62.71;94027.13;5075453;28;20541;-56
2023/04/12 02:26:22;;;;;;;15.23;11.13;;;9.90;99.80;;;9.91;62.54;94027.94;5079004;28;20449;-56
2023/04/12 02:28:51;;;;;;;16.87;12.00;;;9.90;99.60;;;9.92;62.54;94026.97;5078763;28;20466;-64
2023/04/12 02:31:18;;;;;;;15.47;10.90;;;9.90;99.70;;;9.91;62.47;94030.56;5078117;28;20541;-59
2023/04/12 02:33:46;;;;;;;16.67;11.40;;;9.90;99.70;;;9.91;62.47;94035.00;5078963;28;20489;-55
2023/04/12 02:36:14;;;;;;;14.80;11.27;;;9.90;99.60;;;9.90;62.56;94026.31;5076490;28;20474;-63
2023/04/12 02:38:42;;;;;;;15.73;11.37;;;9.90;99.70;;;9.90;62.57;94023.69;5074269;28;20588;-56
2023/04/12 02:41:09;;;;;;;15.47;11.30;;;9.90;99.60;;;9.90;62.60;94023.69;5076840;28;20454;-63
2023/04/12 02:43:36;;;;;;;15.00;10.27;;;9.90;99.70;;;9.89;62.56;94014.16;5078246;28;20470;-57
2023/04/12 02:46:04;;;;;;;17.37;11.10;;;9.90;99.70;;;9.90;62.47;94015.81;5079165;28;20870;-65
2023/04/12 02:48:31;;;;;;;14.83;10.73;;;9.90;99.70;;;9.90;62.87;94012.34;5076158;28;20795;-57
2023/04/12 02:50:59;;;;;;;22.77;11.60;;;9.90;99.90;;;9.89;62.77;94015.97;5077218;28;20465;-57
2023/04/12 02:53:27;;;;;;;17.20;12.60;;;9.90;99.90;;;9.89;62.47;94016.78;5078657;28;20565;-57
2023/04/12 02:55:56;;;;;;;19.97;12.43;;;9.90;99.90;;;9.90;63.51;94012.34;5072154;28;20477;-65
2023/04/12 02:58:23;;;;;;;15.90;12.40;;;9.90;99.90;;;9.90;63.20;94015.81;5077465;28;20498;-57
2023/04/12 03:00:50;;;;;;;15.57;12.00;;;9.90;99.90;;;9.93;63.64;94007.63;5077069;28;20454;-64
2023/04/12 03:03:18;;;;;;;19.83;12.17;;;9.90;99.90;;;9.94;63.16;94009.25;5077429;28;20471;-57
2023/04/12 03:05:46;;;;;;;19.13;13.30;;;10.00;99.80;;;9.97;63.52;94008.94;5078233;28;20458;-64
2023/04/12 03:08:13;;;;;;;17.07;11.63;;;10.00;99.90;;;10.01;63.55;94004.19;5077957;28;20921;-56
2023/04/12 03:10:42;;;;;;;14.47;11.00;;;10.00;99.90;;;10.02;64.22;94011.94;5073722;28;20470;-64
2023/04/12 03:13:10;;;;;;;14.70;11.77;;;10.00;99.90;;;10.05;63.64;94014.25;5072400;28;20462;-56
2023/04/12 03:15:37;;;;;;;16.87;12.40;;;10.00;99.90;;;10.08;63.80;94017.53;5078174;28;20455;-64
2023/04/12 03:18:04;;;;;;;19.30;13.40;;;10.00;99.90;;;10.10;63.73;94012.91;5077658;28;20474;-56
2023/04/12 03:20:32;;;;;;;20.73;12.67;;;10.10;99.90;;;10.11;64.36;94014.56;5079381;28;20538;-56
2023/04/12 03:23:00;;;;;;;19.20;12.33;;;10.10;99.90;;;10.12;63.94;94016.22;5074058;28;20473;-59
2023/04/12 03:25:27;;;;;;;18.67;13.70;;;10.10;99.90;;;10.16;63.71;94020.16;5076855;28;20497;-65
2023/04/12 03:27:56;;;;;;;17.87;12.20;;;10.20;99.90;;;10.18;63.89;94021.66;5078417;28;20497;-56
2023/04/12 03:30:24;;;;;;;21.20;12.47;;;10.20;99.90;;;10.21;63.66;94023.16;5078317;28;20456;-58
2023/04/12 03:32:51;;;;;;;19.73;14.43;;;10.20;99.90;;;10.25;63.88;94027.09;5077799;28;20474;-65
2023/04/12 03:35:19;;;;;;;16.70;12.70;;;10.20;99.90;;;10.27;63.92;94027.78;5077362;28;20449;-64
2023/04/12 03:37:46;;;;;;;25.17;17.10;;;10.30;99.90;;;10.37;65.39;94031.13;5075502;28;20476;-57
2023/04/12 03:40:14;;;;;;;20.83;14.50;;;10.30;99.90;;;10.46;64.41;94028.53;5066509;28;20509;-65
2023/04/12 03:42:41;;;;;;;26.60;18.33;;;10.40;99.90;;;10.51;63.83;94039.41;5077337;28;20549;-64
2023/04/12 03:45:11;;;;;;;30.53;19.40;;;10.50;99.90;;;10.52;63.59;94039.22;5077139;28;20469;-64
2023/04/12 03:47:38;;;;;;;40.50;27.30;;;10.50;99.90;;;10.54;63.39;94041.69;5072280;28;21016;-56
2023/04/12 03:50:09;;;;;;;21.83;15.73;;;10.50;99.90;;;10.55;63.74;94044.16;5075232;28;20458;-61
2023/04/12 03:52:36;;;;;;;15.90;12.23;;;10.50;99.90;;;10.55;63.17;94033.66;5077904;28;20513;-58
2023/04/12 03:55:06;;;;;;;20.93;14.57;;;10.50;99.90;;;10.56;63.09;94043.16;5077548;28;20462;-66
2023/04/12 03:57:33;;;;;;;17.80;13.10;;;10.50;99.90;;;10.55;63.27;94035.44;5078471;28;20908;-62
2023/04/12 04:00:01;;;;;;;17.50;12.77;;;10.50;99.90;;;10.57;63.16;94036.13;5076321;28;20450;-58
2023/04/12 04:02:30;;;;;;;21.27;13.70;;;10.50;99.90;;;10.58;63.03;94040.38;5075334;28;21004;-61
2023/04/12 04:04:57;;;;;;;18.17;13.90;;;10.50;99.90;;;10.57;63.49;94044.00;5069352;28;20966;-58
2023/04/12 04:07:25;;;;;;;28.33;14.20;;;10.60;99.90;;;10.59;63.43;94052.56;5076433;28;20494;-57
2023/04/12 04:09:54;;;;;;;20.67;14.80;;;10.60;99.90;;;10.62;63.40;94046.16;5075424;28;20451;-56
2023/04/12 04:12:21;;;;;;;25.33;14.70;;;10.60;99.90;;;10.63;63.15;94053.88;5076673;28;20554;-56
2023/04/12 04:14:48;;;;;;;30.33;14.33;;;10.60;99.90;;;10.63;63.36;94056.53;5075865;28;20457;-62
2023/04/12 04:17:16;;;;;;;21.73;14.60;;;10.60;99.90;;;10.64;63.18;94063.41;5077828;28;20583;-62
2023/04/12 04:19:44;;;;;;;26.87;17.53;;;10.60;99.90;;;10.66;63.12;94071.13;5077388;28;20947;-58
2023/04/12 04:22:12;;;;;;;22.70;14.30;;;10.60;99.90;;;10.66;63.48;94076.38;5075287;28;21042;-62
2023/04/12 04:24:39;;;;;;;28.60;15.87;;;10.70;99.90;;;10.67;63.33;94073.59;5076664;28;20983;-62
2023/04/12 04:27:07;;;;;;;28.30;17.73;;;10.60;99.90;;;10.68;63.12;94064.75;5076891;28;20481;-57
2023/04/12 04:29:35;;;;;;;33.80;18.30;;;10.70;99.90;;;10.71;63.59;94064.41;5076413;28;20446;-62
2023/04/12 04:32:02;;;;;;;35.30;19.37;;;10.70;99.90;;;10.74;63.45;94074.63;5073814;28;20703;-62
2023/04/12 04:34:30;;;;;;;35.43;19.83;;;10.70;99.90;;;10.76;63.63;94075.28;5073972;28;20454;-63
2023/04/12 04:36:59;;;;;;;36.47;21.30;;;10.70;99.90;;;10.81;63.54;94076.59;5073251;28;20471;-56
2023/04/12 04:39:27;;;;;;;35.07;19.50;;;10.80;99.90;;;10.81;62.79;94080.06;5074886;28;20454;-58
2023/04/12 04:41:54;;;;;;;41.27;18.57;;;10.80;99.90;;;10.80;62.36;94077.59;5072824;28;20521;-56
2023/04/12 04:44:21;;;;;;;23.33;15.07;;;10.80;99.70;;;10.74;62.16;94090.41;5068123;28;20451;-62
2023/04/12 04:46:49;;;;;;;24.70;14.60;;;10.80;99.50;;;10.70;62.23;94088.25;5076702;28;20884;-62
2023/04/12 04:49:16;;;;;;;22.13;14.13;;;10.70;99.40;;;10.67;62.15;94081.50;5072335;28;20442;-63
2023/04/12 04:51:43;;;;;;;21.10;14.20;;;10.70;99.30;;;10.66;62.22;94093.00;5072799;28;20952;-56
2023/04/12 04:54:12;;;;;;;23.87;13.47;;;10.60;99.20;;;10.63;62.15;94089.84;5073016;28;20459;-56
2023/04/12 04:56:40;;;;;;;19.63;12.53;;;10.60;99.20;;;10.60;61.99;94088.41;5067958;28;20465;-64
2023/04/12 04:59:07;;;;;;;19.73;13.10;;;10.60;99.10;;;10.58;61.67;94096.44;5073635;28;20522;-62
2023/04/12 05:01:36;;;;;;;18.50;12.60;;;10.60;99.10;;;10.56;61.74;94092.31;5074689;28;20469;-63
2023/04/12 05:04:03;;;;;;;14.73;11.13;;;10.60;99.10;;;10.56;61.66;94108.91;5075741;28;20863;-56
2023/04/12 05:06:31;;;;;;;22.07;12.77;;;10.50;98.90;;;10.55;61.58;94112.53;5075154;28;20454;-56
2023/04/12 05:09:00;;;;;;;19.17;11.87;;;10.50;98.90;;;10.54;61.59;94113.50;5074286;28;20489;-63
2023/04/12 05:11:29;;;;;;;17.03;11.90;;;10.50;98.80;;;10.54;61.29;94110.88;5075338;28;20612;-63
2023/04/12 05:13:56;;;;;;;15.90;11.53;;;10.50;98.70;;;10.56;61.22;94113.34;5070409;28;20470;-58
2023/04/12 05:16:23;;;;;;;12.97;10.33;;;10.50;98.70;;;10.56;61.02;94110.72;5075732;28;20825;-62
2023/04/12 05:18:50;;;;;;;14.37;9.90;;;10.60;98.50;;;10.56;60.91;94119.41;5074423;28;20546;-61
2023/04/12 05:21:18;;;;;;;17.20;11.10;;;10.60;98.40;;;10.59;60.88;94115.66;5078420;28;20449;-59
2023/04/12 05:23:46;;;;;;;13.10;10.50;;;10.60;98.30;;;10.61;60.51;94105.78;5071897;28;20470;-57
2023/04/12 05:26:14;;;;;;;12.90;8.77;;;10.60;98.10;;;10.61;60.51;94116.31;5076397;28;20482;-56
2023/04/12 05:28:44;;;;;;;15.13;9.60;;;10.60;98.00;;;10.61;60.39;94115.50;5077170;28;20525;-62
2023/04/12 05:31:11;;;;;;;11.43;7.83;;;10.60;97.90;;;10.59;60.16;94113.03;5074498;28;20453;-63
2023/04/12 05:33:38;;;;;;;8.90;7.50;;;10.60;97.80;;;10.58;60.23;94122.75;5073560;28;20540;-62
2023/04/12 05:36:06;;;;;;;9.80;7.53;;;10.60;97.80;;;10.58;59.95;94128.00;5073578;28;20451;-62
2023/04/12 05:38:34;;;;;;;17.90;9.07;;;10.60;97.40;;;10.57;59.75;94107.13;5076064;28;20474;-63
2023/04/12 05:41:03;;;;;;;9.30;6.77;;;10.60;97.40;;;10.57;59.44;94101.84;5075572;28;20450;-55
2023/04/12 05:43:30;;;;;;;8.30;6.30;;;10.60;97.10;;;10.58;59.13;94100.84;5076151;28;20538;-61
2023/04/12 05:45:59;;;;;;;7.90;6.57;;;10.60;96.90;;;10.61;58.06;94104.97;5080474;28;20537;-58
2023/04/12 05:48:26;;;;;;;8.50;6.73;;;10.60;96.10;;;10.60;58.41;94106.81;5075683;28;20576;-62
2023/04/12 05:50:53;;;;;;;12.93;6.73;;;10.60;96.20;;;10.59;57.96;94098.06;5078940;28;20889;-57
2023/04/12 05:53:21;;;;;;;14.87;5.53;;;10.60;96.10;;;10.59;57.76;94103.31;5079064;28;20629;-57
2023/04/12 05:55:50;;;;;;;8.23;5.83;;;10.60;95.50;;;10.60;58.21;94109.44;5079894;28;20450;-57
2023/04/12 05:58:17;;;;;;;8.40;6.03;;;10.60;95.90;;;10.59;58.30;94103.31;5073552;28;21030;-63
2023/04/12 06:00:45;;;;;;;6.67;5.73;;;10.60;96.10;;;10.59;58.09;94128.81;5078229;28;20560;-62
2023/04/12 06:03:13;;;;;;;8.10;6.30;;;10.60;95.90;;;10.59;58.15;94129.63;5079761;28;20550;-62
2023/04/12 06:05:41;;;;;;;6.17;5.30;;;10.60;95.90;;;10.58;58.16;94129.78;5073185;28;20952;-57
2023/04/12 06:08:09;;;;;;;7.63;6.70;;;10.60;95.90;;;10.54;57.98;94141.63;5079645;28;20860;-62
2023/04/12 06:10:36;;;;;;;9.60;5.67;;;10.50;95.50;;;10.52;57.98;94151.47;5077479;28;20454;-57
2023/04/12 06:13:03;;;;;;;7.87;6.30;;;10.50;95.60;;;10.52;57.68;94156.72;5079321;28;20486;-63
2023/04/12 06:15:32;;;;;;;11.63;5.60;;;10.50;95.50;;;10.52;58.34;94154.09;5079325;28;20458;-63
2023/04/12 06:17:59;;;;;;;6.50;5.10;;;10.50;95.90;;;10.54;58.29;94152.13;5079146;28;20458;-62
2023/04/12 06:20:28;;;;;;;5.43;4.77;;;10.50;95.90;;;10.55;57.91;94159.03;5076929;28;20536;-57
2023/04/12 06:22:55;;;;;;;5.83;4.50;;;10.50;95.60;;;10.56;57.60;94152.78;5073756;28;20831;-57
2023/04/12 06:25:23;;;;;;;6.87;5.40;;;10.50;95.30;;;10.57;57.46;94144.75;5078655;28;20489;-58
2023/04/12 06:27:50;;;;;;;6.73;5.13;;;10.60;95.20;;;10.61;57.73;94139.16;5078224;28;20508;-62
2023/04/12 06:30:18;;;;;;;5.00;4.30;;;10.60;95.10;;;10.64;57.27;94136.22;5076207;28;20487;-62
2023/04/12 06:32:46;;;;;;;4.47;4.00;;;10.60;95.00;;;10.67;57.05;94134.09;5077385;28;20466;-57
2023/04/12 06:35:13;;;;;;;7.10;5.43;;;10.60;94.80;;;10.72;57.18;94131.81;5079154;28;20453;-58
2023/04/12 06:37:42;;;;;;;5.03;4.53;;;10.70;94.80;;;10.77;56.94;94129.53;5074789;28;20466;-63
2023/04/12 06:40:11;;;;;;;7.53;3.93;;;10.70;94.80;;;10.83;56.97;94135.13;5078810;28;20469;-56
2023/04/12 06:42:38;;;;;;;6.70;3.30;;;10.80;94.90;;;10.88;56.86;94133.69;5078975;28;20470;-63
2023/04/12 06:45:07;;;;;;;4.37;3.93;;;10.90;94.80;;;10.97;56.60;94125.81;5078717;28;20461;-63
2023/04/12 06:47:34;;;;;;;3.53;3.27;;;10.90;94.60;;;11.00;56.09;94118.44;5079607;28;20569;-64
2023/04/12 06:50:02;;;;;;;5.77;3.70;;;11.00;94.20;;;11.01;56.11;94117.44;5078660;28;20938;-58
2023/04/12 06:52:29;;;;;;;5.70;3.43;;;11.00;94.20;;;11.02;56.37;94119.09;5078244;28;20624;-58
2023/04/12 06:54:58;;;;;;;5.33;3.60;;;11.00;94.30;;;11.05;56.08;94115.31;5077632;28;21023;-63
2023/04/12 06:57:25;;;;;;;4.57;3.20;;;11.00;94.10;;;11.07;56.27;94115.97;5071333;28;20458;-56
2023/04/12 06:59:53;;;;;;;3.87;3.33;;;11.00;94.20;;;11.10;56.21;94105.94;5077662;28;20529;-56
2023/04/12 07:02:20;;;;;;;3.93;3.00;;;11.10;94.20;;;11.23;55.87;94112.53;5076132;28;20954;-57
2023/04/12 07:04:47;;;;;;;3.17;2.87;;;11.20;94.10;;;11.36;55.41;94125.25;5076187;28;20446;-61
2023/04/12 07:07:15;;;;;;;4.37;3.27;;;11.30;93.70;;;11.59;55.33;94128.06;5077759;28;20470;-63
2023/04/12 07:09:42;;;;;;;4.13;2.90;;;11.50;93.60;;;11.91;54.76;94119.28;5076774;28;20592;-62
2023/04/12 07:12:11;;;;;;;3.47;3.17;;;11.80;93.20;;;12.20;53.91;94112.69;5076675;28;20475;-62
2023/04/12 07:14:38;;;;;;;3.43;3.13;;;12.00;93.00;;;12.43;53.68;94123.34;5073025;28;20986;-64
2023/04/12 07:17:05;;;;;;;4.90;3.60;;;12.30;92.40;;;12.65;53.29;94116.50;5074329;28;20477;-64
2023/04/12 07:19:32;;;;;;;4.13;3.80;;;12.50;92.00;;;12.87;51.96;94130.78;5073143;28;20913;-63
2023/04/12 07:22:00;;;;;;;6.57;3.53;;;12.70;91.10;;;13.02;51.81;94130.03;5074143;28;20471;-56
2023/04/12 07:24:27;;;;;;;9.73;3.30;;;12.90;90.90;;;13.04;51.54;94126.22;5065353;28;20463;-63
2023/04/12 07:26:54;;;;;;;6.27;3.57;;;12.90;90.20;;;13.05;51.58;94124.41;5072106;28;20582;-64
2023/04/12 07:29:23;;;;;;;3.40;3.10;;;13.00;90.00;;;13.10;51.06;94108.84;5070207;28;20603;-62
2023/04/12 07:31:50;;;;;;;3.43;2.93;;;13.00;88.80;;;13.43;51.44;94098.09;5073725;28;20451;-56
2023/04/12 07:34:18;;;;;;;3.87;2.60;;;13.30;89.60;;;13.95;49.89;94110.56;5068506;28;20454;-58
2023/04/12 07:36:45;;;;;;;2.73;2.53;;;13.70;87.50;;;14.57;49.12;94111.25;5075606;28;20682;-63
2023/04/12 07:39:13;;;;;;;3.23;2.27;;;14.20;87.00;;;15.15;48.37;94107.91;5075049;28;20504;-62
2023/04/12 07:41:41;;;;;;;7.80;3.20;;;14.80;85.40;;;15.67;46.38;94096.22;5072961;28;20450;-63
2023/04/12 07:44:09;;;;;;;5.60;3.13;;;15.30;80.70;;;16.23;45.27;94089.34;5073219;28;20841;-56
2023/04/12 07:46:39;;;;;;;6.50;2.57;;;15.90;76.50;;;16.69;44.64;94083.47;5076127;28;20534;-62
2023/04/12 07:49:06;;;;;;;9.93;2.87;;;16.30;75.90;;;16.91;43.83;94080.75;5075169;28;20493;-65
2023/04/12 07:51:33;;;;;;;3.93;2.50;;;16.60;73.00;;;17.03;43.08;94103.06;5074226;28;20499;-63
2023/04/12 07:54:00;;;;;;;4.23;2.87;;;16.80;70.10;;;17.03;41.81;94085.28;5075281;28;20544;-57
2023/04/12 07:56:28;;;;;;;4.63;2.70;;;16.80;66.10;;;17.01;42.44;94094.50;5071812;28;20893;-62
2023/04/12 07:58:55;;;;;;;5.67;3.77;;;16.90;67.00;;;16.96;39.63;94083.63;5075823;28;20474;-63
2023/04/12 08:01:22;;;;;;;2.17;1.97;;;16.90;63.40;;;16.77;42.25;94085.97;5077098;28;20464;-62
2023/04/12 08:03:51;;;;;;;2.47;2.20;;;16.70;64.90;;;16.52;40.20;94063.59;5075139;28;20473;-56
2023/04/12 08:06:18;;;;;;;4.10;2.00;;;16.50;61.20;;;16.21;39.25;94070.16;5075598;28;20943;-62
2023/04/12 08:08:45;;;;;;;3.50;2.40;;;16.30;59.00;;;15.90;42.51;94080.13;5077332;28;20543;-63
2023/04/12 08:11:13;;;;;;;6.93;2.90;;;16.00;63.00;;;15.67;41.97;94088.25;5076305;28;20458;-64
2023/04/12 08:13:40;;;;;;;2.90;2.20;;;15.80;62.80;;;15.63;43.06;94083.53;5075549;28;20846;-63
2023/04/12 08:16:08;;;;;;;4.20;2.00;;;15.70;64.40;;;15.95;43.81;94098.09;5076016;28;20446;-58
2023/04/12 08:18:35;;;;;;;2.60;1.70;;;15.90;66.40;;;16.60;42.02;94068.72;5076795;28;20560;-58
2023/04/12 08:21:04;;;;;;;3.10;1.40;;;16.50;64.00;;;17.20;40.89;94072.47;5075633;28;20951;-58
2023/04/12 08:23:32;;;;;;;4.20;1.30;;;17.10;62.00;;;17.72;37.95;94062.13;5074155;28;20549;-64
2023/04/12 08:26:02;;;;;;;1.47;1.37;;;17.80;56.30;;;18.14;34.09;94079.75;5070883;28;20546;-63
2023/04/12 08:28:29;;;;;;;2.60;1.53;;;18.20;52.70;;;18.37;36.43;94069.50;5077311;28;20490;-57
2023/04/12 08:30:57;;;;;;;1.90;1.80;;;18.60;54.40;;;18.68;36.34;94070.63;5078660;28;20530;-56
2023/04/12 08:33:25;;;;;;;8.27;1.60;;;18.90;53.70;;;18.99;35.70;94082.44;5072322;28;20550;-57
2023/04/12 08:35:53;;;;;;;1.90;1.70;;;19.30;52.70;;;19.27;33.57;94063.47;5075199;28;20872;-56
2023/04/12 08:38:21;;;;;;;4.47;1.83;;;19.60;49.70;;;19.40;35.09;94064.41;5076138;28;20477;-58
2023/04/12 08:40:49;;;;;;;1.50;1.40;;;19.80;50.80;;;19.57;33.21;94068.19;5074390;28;20510;-64
2023/04/12 08:43:16;;;;;;;1.73;1.53;;;19.90;49.30;;;19.69;34.55;94052.31;5074828;28;20859;-63
2023/04/12 08:45:43;;;;;;;2.80;2.17;;;19.90;50.80;;;19.87;33.90;94057.72;5076120;28;20477;-57
2023/04/12 08:48:11;;;;;;;1.63;1.53;;;20.00;49.60;;;20.00;32.62;94050.66;5075946;28;20474;-57
2023/04/12 08:50:38;;;;;;;2.60;2.10;;;20.10;49.10;;;20.08;34.42;94062.91;5075643;28;20458;-64
2023/04/12 08:53:05;;;;;;;1.63;1.53;;;20.10;50.10;;;20.05;33.00;94043.63;5076742;28;20565;-62
2023/04/12 08:55:34;;;;;;;2.67;2.30;;;20.00;48.40;;;20.08;30.62;94031.72;5071276;28;20523;-63
2023/04/12 08:58:06;;;;;;;1.83;1.37;;;20.00;46.40;;;20.06;31.68;94039.94;5076591;28;20832;-65
2023/04/12 09:00:33;;;;;;;1.80;1.70;;;20.00;46.10;;;20.12;31.95;94053.44;5071758;28;20454;-65
2023/04/12 09:03:01;;;;;;;1.60;1.40;;;20.00;46.60;;;20.25;32.96;94053.34;5073864;28;20474;-56
2023/04/12 09:05:29;;;;;;;3.10;1.67;;;20.10;47.90;;;20.44;31.58;94042.66;5076728;28;20853;-56
2023/04/12 09:07:57;;;;;;;1.90;1.80;;;20.30;46.70;;;20.68;32.76;94036.47;5071332;28;20496;-58
2023/04/12 09:10:33;;;;;;;2.07;1.10;;;20.40;47.80;;;20.88;32.46;94027.41;5076264;28;21037;-63
2023/04/12 09:13:01;;;;;;;2.23;2.10;;;20.60;47.40;;;21.07;31.39;94023.66;5076984;28;20471;-65
2023/04/12 09:15:29;;;;;;;6.13;2.30;;;20.80;45.50;;;21.19;30.55;94033.59;5076981;28;20451;-63
2023/04/12 09:18:08;;;;;;;2.53;2.30;;;20.90;44.00;;;21.20;28.26;94009.28;5078161;28;20502;-56
2023/04/12 09:20:35;;;;;;;5.43;1.33;;;21.00;43.10;;;21.13;30.58;94017.41;5075160;28;20512;-57
2023/04/12 09:23:19;;;;;;;6.23;1.77;;;20.90;44.00;;;21.09;29.44;94002.03;5077597;28;20542;-57
2023/04/12 09:25:50;;;;;;;4.50;1.30;;;20.90;43.10;;;21.09;27.03;93994.03;5059858;28;20898;-64
2023/04/12 09:28:23;;;;;;;4.37;1.70;;;20.90;40.50;;;21.09;27.78;93991.34;5079074;28;20463;-64
2023/04/12 09:30:51;;;;;;;1.50;1.40;;;20.90;41.20;;;21.20;28.27;93995.13;5074648;28;20450;-64
2023/04/12 09:33:20;;;;;;;2.90;1.67;;;20.90;41.70;;;21.18;26.21;93997.19;5076487;28;20554;-58
2023/04/12 09:35:47;;;;;;;7.40;1.40;;;20.90;38.60;;;21.08;28.90;93998.53;5078744;28;20443;-58
2023/04/12 09:38:15;;;;;;;3.10;2.10;;;20.90;41.00;;;21.14;26.75;93989.59;5073905;28;20470;-57
2023/04/12 09:40:42;;;;;;;2.70;1.00;;;20.90;40.00;;;21.24;29.68;93983.72;5079451;28;20512;-58
2023/04/12 09:43:11;;;;;;;3.67;1.23;;;20.90;42.40;;;21.39;26.67;93966.44;5078262;28;20481;-56
2023/04/12 09:45:38;;;;;;;2.10;1.30;;;21.10;39.60;;;21.48;29.22;93987.28;5079378;28;20463;-57
2023/04/12 09:48:07;;;;;;;2.00;1.80;;;21.20;42.10;;;21.43;30.04;93983.66;5079439;28;20494;-63
2023/04/12 09:50:34;;;;;;;3.00;1.00;;;21.10;43.20;;;21.39;30.02;93987.84;5080775;28;20577;-58
2023/04/12 09:53:02;;;;;;;2.40;1.77;;;21.10;43.00;;;21.46;29.23;93984.00;5081046;28;20864;-58
2023/04/12 09:55:31;;;;;;;4.97;1.50;;;21.20;41.70;;;21.65;28.99;93973.25;5078404;28;20446;-58
2023/04/12 09:58:03;;;;;;;3.83;1.20;;;21.30;42.50;;;21.66;27.02;93974.91;5080239;28;20473;-63
2023/04/12 10:00:34;;;;;;;3.10;1.27;;;21.40;39.00;;;21.66;26.17;93962.34;5076408;28;20470;-57
2023/04/12 10:03:01;;;;;;;8.00;1.40;;;21.40;38.20;;;21.59;27.18;93977.66;5074241;28;20561;-56
2023/04/12 10:05:29;;;;;;;1.13;0.87;;;21.30;39.50;;;21.62;28.29;93957.66;5078595;28;20559;-57
2023/04/12 10:07:57;;;;;;;2.00;1.43;;;21.40;40.20;;;21.75;27.04;93959.31;5078225;28;20511;-64
2023/04/12 10:10:24;;;;;;;5.07;1.33;;;21.50;38.00;;;21.77;25.44;93955.34;5079624;28;20473;-57
2023/04/12 10:12:52;;;;;;;2.77;1.40;;;21.50;36.50;;;21.59;24.80;93961.59;5077996;28;20499;-56
2023/04/12 10:15:20;;;;;;;1.03;0.93;;;21.40;37.00;;;21.39;25.59;93961.88;5078459;28;20451;-64
2023/04/12 10:17:51;;;;;;;1.90;1.07;;;21.20;35.70;;;21.09;25.08;93967.28;5078221;28;20541;-63
2023/04/12 10:20:19;;;;;;;5.17;0.80;;;20.90;35.30;;;20.55;24.91;93961.78;5078643;28;20577;-56